sensor_id;sensor_type;location;lat;lon;timestamp;temperature;humidity
27759;DHT22;15148;48.972;12.794;2022-07-24T00:03:07;18.00;99.90
27759;DHT22;15148;48.972;12.794;2022-07-24T00:08:09;17.90;99.90
27759;DHT22;15148;48.972;12.794;2022-07-24T00:13:10;17.90;99.90
27759;DHT22;15148;48.972;12.794;2022-07-24T00:18:12;17.80;99.90
27759;DHT22;15148;48.972;12.794;2022-07-24T00:23:14;17.70;99.90
27759;DHT22;15148;48.972;12.794;2022-07-24T00:28:16;17.80;99.90
27759;DHT22;15148;48.972;12.794;2022-07-24T00:33:18;17.80;99.90
27759;DHT22;15148;48.972;12.794;2022-07-24T00:38:20;17.80;99.90
27759;DHT22;15148;48.972;12.794;2022-07-24T00:43:22;17.90;99.90
27759;DHT22;15148;48.972;12.794;2022-07-24T00:48:24;17.80;99.90
27759;DHT22;15148;48.972;12.794;2022-07-24T00:53:26;17.80;99.90
27759;DHT22;15148;48.972;12.794;2022-07-24T00:58:28;17.80;99.90
27759;DHT22;15148;48.972;12.794;2022-07-24T01:03:30;17.80;99.90
27759;DHT22;15148;48.972;12.794;2022-07-24T01:08:33;17.70;99.90
27759;DHT22;15148;48.972;12.794;2022-07-24T01:13:38;17.60;99.90
27759;DHT22;15148;48.972;12.794;2022-07-24T01:18:40;17.70;99.90
27759;DHT22;15148;48.972;12.794;2022-07-24T01:23:41;17.70;99.90
27759;DHT22;15148;48.972;12.794;2022-07-24T01:28:43;17.70;99.90
27759;DHT22;15148;48.972;12.794;2022-07-24T01:33:45;17.80;99.90
27759;DHT22;15148;48.972;12.794;2022-07-24T01:38:47;17.80;99.90
27759;DHT22;15148;48.972;12.794;2022-07-24T01:43:50;17.80;99.90
27759;DHT22;15148;48.972;12.794;2022-07-24T01:48:52;17.80;99.90
27759;DHT22;15148;48.972;12.794;2022-07-24T01:53:54;17.80;99.90
27759;DHT22;15148;48.972;12.794;2022-07-24T01:58:55;17.90;99.90
27759;DHT22;15148;48.972;12.794;2022-07-24T02:03:58;17.90;99.90
27759;DHT22;15148;48.972;12.794;2022-07-24T02:09:00;17.90;99.90
27759;DHT22;15148;48.972;12.794;2022-07-24T02:14:02;17.80;99.90
27759;DHT22;15148;48.972;12.794;2022-07-24T02:19:04;17.80;99.90
27759;DHT22;15148;48.972;12.794;2022-07-24T02:24:07;17.80;99.90
27759;DHT22;15148;48.972;12.794;2022-07-24T02:29:09;17.80;99.90
27759;DHT22;15148;48.972;12.794;2022-07-24T02:34:11;17.80;99.90
27759;DHT22;15148;48.972;12.794;2022-07-24T02:39:13;17.60;99.90
27759;DHT22;15148;48.972;12.794;2022-07-24T02:44:15;17.70;99.90
27759;DHT22;15148;48.972;12.794;2022-07-24T02:49:17;17.70;99.90
27759;DHT22;15148;48.972;12.794;2022-07-24T02:54:19;17.70;99.90
27759;DHT22;15148;48.972;12.794;2022-07-24T02:59:21;17.70;99.90
27759;DHT22;15148;48.972;12.794;2022-07-24T03:04:23;17.70;99.90
27759;DHT22;15148;48.972;12.794;2022-07-24T03:09:25;17.70;99.90
27759;DHT22;15148;48.972;12.794;2022-07-24T03:14:27;17.60;99.90
27759;DHT22;15148;48.972;12.794;2022-07-24T03:19:29;17.60;99.90
27759;DHT22;15148;48.972;12.794;2022-07-24T03:24:30;17.60;99.90
27759;DHT22;15148;48.972;12.794;2022-07-24T03:29:32;17.60;99.90
27759;DHT22;15148;48.972;12.794;2022-07-24T03:34:34;17.50;99.90
27759;DHT22;15148;48.972;12.794;2022-07-24T03:39:36;17.40;99.90
27759;DHT22;15148;48.972;12.794;2022-07-24T03:44:38;17.40;99.90
27759;DHT22;15148;48.972;12.794;2022-07-24T03:49:40;17.30;99.90
27759;DHT22;15148;48.972;12.794;2022-07-24T03:54:42;17.20;99.90
27759;DHT22;15148;48.972;12.794;2022-07-24T03:59:44;17.30;99.90
27759;DHT22;15148;48.972;12.794;2022-07-24T04:04:45;17.20;99.90
27759;DHT22;15148;48.972;12.794;2022-07-24T04:09:47;17.10;99.90
27759;DHT22;15148;48.972;12.794;2022-07-24T04:14:49;17.10;99.90
27759;DHT22;15148;48.972;12.794;2022-07-24T04:19:51;17.10;99.90
27759;DHT22;15148;48.972;12.794;2022-07-24T04:24:53;17.20;99.90
27759;DHT22;15148;48.972;12.794;2022-07-24T04:29:55;17.20;99.90
27759;DHT22;15148;48.972;12.794;2022-07-24T04:34:57;17.30;99.90
27759;DHT22;15148;48.972;12.794;2022-07-24T04:39:58;17.40;99.90
27759;DHT22;15148;48.972;12.794;2022-07-24T04:45:01;17.40;99.90
27759;DHT22;15148;48.972;12.794;2022-07-24T04:50:04;17.40;99.90
27759;DHT22;15148;48.972;12.794;2022-07-24T04:55:07;17.40;99.90
27759;DHT22;15148;48.972;12.794;2022-07-24T05:00:10;17.50;99.90
27759;DHT22;15148;48.972;12.794;2022-07-24T05:05:13;17.60;99.90
27759;DHT22;15148;48.972;12.794;2022-07-24T05:10:14;17.80;99.90
27759;DHT22;15148;48.972;12.794;2022-07-24T05:15:16;17.90;99.90
27759;DHT22;15148;48.972;12.794;2022-07-24T05:20:18;18.00;99.90
27759;DHT22;15148;48.972;12.794;2022-07-24T05:25:20;18.20;99.90
27759;DHT22;15148;48.972;12.794;2022-07-24T05:30:22;18.50;99.90
27759;DHT22;15148;48.972;12.794;2022-07-24T05:35:24;19.80;99.90
27759;DHT22;15148;48.972;12.794;2022-07-24T05:40:29;21.80;99.90
27759;DHT22;15148;48.972;12.794;2022-07-24T05:45:31;23.10;99.90
27759;DHT22;15148;48.972;12.794;2022-07-24T05:50:33;24.50;99.90
27759;DHT22;15148;48.972;12.794;2022-07-24T05:55:35;26.80;99.90
27759;DHT22;15148;48.972;12.794;2022-07-24T06:00:37;28.90;99.90
27759;DHT22;15148;48.972;12.794;2022-07-24T06:05:38;29.40;99.90
27759;DHT22;15148;48.972;12.794;2022-07-24T06:10:40;28.80;99.90
27759;DHT22;15148;48.972;12.794;2022-07-24T06:15:42;27.80;99.90
27759;DHT22;15148;48.972;12.794;2022-07-24T06:20:44;26.90;99.90
27759;DHT22;15148;48.972;12.794;2022-07-24T06:25:50;26.20;99.90
27759;DHT22;15148;48.972;12.794;2022-07-24T06:30:51;25.50;99.90
27759;DHT22;15148;48.972;12.794;2022-07-24T06:35:53;25.20;99.90
27759;DHT22;15148;48.972;12.794;2022-07-24T06:40:55;24.80;99.90
27759;DHT22;15148;48.972;12.794;2022-07-24T06:45:57;24.60;99.90
27759;DHT22;15148;48.972;12.794;2022-07-24T06:50:59;24.60;99.90
27759;DHT22;15148;48.972;12.794;2022-07-24T06:56:01;24.50;99.90
27759;DHT22;15148;48.972;12.794;2022-07-24T07:01:03;24.50;99.90
27759;DHT22;15148;48.972;12.794;2022-07-24T07:06:05;24.50;99.90
27759;DHT22;15148;48.972;12.794;2022-07-24T07:11:07;24.60;99.90
27759;DHT22;15148;48.972;12.794;2022-07-24T07:16:09;24.70;99.90
27759;DHT22;15148;48.972;12.794;2022-07-24T07:21:11;24.60;99.90
27759;DHT22;15148;48.972;12.794;2022-07-24T07:26:13;24.70;99.90
27759;DHT22;15148;48.972;12.794;2022-07-24T07:31:15;24.70;99.90
27759;DHT22;15148;48.972;12.794;2022-07-24T07:36:17;24.70;99.90
27759;DHT22;15148;48.972;12.794;2022-07-24T07:41:19;24.80;99.90
27759;DHT22;15148;48.972;12.794;2022-07-24T07:46:21;24.80;99.90
27759;DHT22;15148;48.972;12.794;2022-07-24T07:51:22;25.00;99.90
27759;DHT22;15148;48.972;12.794;2022-07-24T07:56:25;25.20;99.90
27759;DHT22;15148;48.972;12.794;2022-07-24T08:01:27;25.30;99.90
27759;DHT22;15148;48.972;12.794;2022-07-24T08:06:29;25.50;99.90
27759;DHT22;15148;48.972;12.794;2022-07-24T08:11:31;25.60;99.90
27759;DHT22;15148;48.972;12.794;2022-07-24T08:16:33;25.70;99.90
27759;DHT22;15148;48.972;12.794;2022-07-24T08:21:34;25.70;99.90
27759;DHT22;15148;48.972;12.794;2022-07-24T08:26:36;25.70;99.90
27759;DHT22;15148;48.972;12.794;2022-07-24T08:31:38;25.80;99.90
27759;DHT22;15148;48.972;12.794;2022-07-24T08:36:40;25.90;99.90
27759;DHT22;15148;48.972;12.794;2022-07-24T08:41:43;26.10;99.90
27759;DHT22;15148;48.972;12.794;2022-07-24T08:46:45;26.20;99.90
27759;DHT22;15148;48.972;12.794;2022-07-24T08:51:49;26.30;99.90
27759;DHT22;15148;48.972;12.794;2022-07-24T08:56:51;26.50;99.90
27759;DHT22;15148;48.972;12.794;2022-07-24T09:01:53;26.60;99.90
27759;DHT22;15148;48.972;12.794;2022-07-24T09:06:56;26.70;99.90
27759;DHT22;15148;48.972;12.794;2022-07-24T09:12:17;26.80;99.90
27759;DHT22;15148;48.972;12.794;2022-07-24T09:17:20;26.90;99.90
27759;DHT22;15148;48.972;12.794;2022-07-24T09:22:32;27.00;99.90
27759;DHT22;15148;48.972;12.794;2022-07-24T09:27:37;27.20;99.90
27759;DHT22;15148;48.972;12.794;2022-07-24T09:32:39;27.30;99.90
27759;DHT22;15148;48.972;12.794;2022-07-24T09:37:41;27.50;99.90
27759;DHT22;15148;48.972;12.794;2022-07-24T09:42:43;27.60;99.90
27759;DHT22;15148;48.972;12.794;2022-07-24T09:47:46;27.60;99.90
27759;DHT22;15148;48.972;12.794;2022-07-24T09:52:57;27.70;99.90
27759;DHT22;15148;48.972;12.794;2022-07-24T09:57:59;27.60;99.90
27759;DHT22;15148;48.972;12.794;2022-07-24T10:03:06;27.70;99.90
27759;DHT22;15148;48.972;12.794;2022-07-24T10:08:13;27.70;99.90
27759;DHT22;15148;48.972;12.794;2022-07-24T10:13:15;27.80;99.90
27759;DHT22;15148;48.972;12.794;2022-07-24T10:18:19;28.00;99.90
27759;DHT22;15148;48.972;12.794;2022-07-24T10:23:25;28.00;99.90
27759;DHT22;15148;48.972;12.794;2022-07-24T10:28:35;28.00;99.90
27759;DHT22;15148;48.972;12.794;2022-07-24T10:33:41;28.20;99.90
27759;DHT22;15148;48.972;12.794;2022-07-24T10:39:09;28.30;99.90
27759;DHT22;15148;48.972;12.794;2022-07-24T10:44:17;28.50;99.90
27759;DHT22;15148;48.972;12.794;2022-07-24T10:54:41;28.50;99.90
27759;DHT22;15148;48.972;12.794;2022-07-24T10:59:44;28.40;99.90
27759;DHT22;15148;48.972;12.794;2022-07-24T11:04:45;28.40;99.90
27759;DHT22;15148;48.972;12.794;2022-07-24T11:10:00;28.30;99.90
27759;DHT22;15148;48.972;12.794;2022-07-24T11:15:04;28.30;99.90
27759;DHT22;15148;48.972;12.794;2022-07-24T11:20:32;28.50;99.90
27759;DHT22;15148;48.972;12.794;2022-07-24T11:25:35;28.40;98.60
27759;DHT22;15148;48.972;12.794;2022-07-24T11:30:42;28.00;99.90
27759;DHT22;15148;48.972;12.794;2022-07-24T11:35:44;27.70;99.90
27759;DHT22;15148;48.972;12.794;2022-07-24T11:40:46;27.60;99.90
27759;DHT22;15148;48.972;12.794;2022-07-24T11:45:52;27.50;99.90
27759;DHT22;15148;48.972;12.794;2022-07-24T11:51:05;27.10;99.90
27759;DHT22;15148;48.972;12.794;2022-07-24T11:56:30;27.00;99.90
27759;DHT22;15148;48.972;12.794;2022-07-24T12:01:32;26.90;99.90
27759;DHT22;15148;48.972;12.794;2022-07-24T12:06:34;26.80;99.90
27759;DHT22;15148;48.972;12.794;2022-07-24T12:11:35;26.70;99.90
27759;DHT22;15148;48.972;12.794;2022-07-24T12:16:37;26.80;99.90
27759;DHT22;15148;48.972;12.794;2022-07-24T12:21:40;27.30;99.90
27759;DHT22;15148;48.972;12.794;2022-07-24T12:26:56;27.50;99.90
27759;DHT22;15148;48.972;12.794;2022-07-24T12:32:17;27.80;99.90
27759;DHT22;15148;48.972;12.794;2022-07-24T12:37:20;28.10;99.90
27759;DHT22;15148;48.972;12.794;2022-07-24T12:42:40;28.30;99.90
27759;DHT22;15148;48.972;12.794;2022-07-24T12:48:08;28.40;99.10
27759;DHT22;15148;48.972;12.794;2022-07-24T12:53:11;28.60;99.50
27759;DHT22;15148;48.972;12.794;2022-07-24T12:58:13;28.80;99.90
27759;DHT22;15148;48.972;12.794;2022-07-24T13:03:26;28.90;99.90
27759;DHT22;15148;48.972;12.794;2022-07-24T13:08:28;29.10;98.80
27759;DHT22;15148;48.972;12.794;2022-07-24T13:13:30;29.20;96.40
27759;DHT22;15148;48.972;12.794;2022-07-24T13:18:32;29.10;96.70
27759;DHT22;15148;48.972;12.794;2022-07-24T13:23:34;29.20;94.00
27759;DHT22;15148;48.972;12.794;2022-07-24T13:28:37;29.20;93.80
27759;DHT22;15148;48.972;12.794;2022-07-24T13:33:49;29.30;93.20
27759;DHT22;15148;48.972;12.794;2022-07-24T13:38:51;29.50;93.70
27759;DHT22;15148;48.972;12.794;2022-07-24T13:43:54;29.60;92.50
27759;DHT22;15148;48.972;12.794;2022-07-24T13:48:56;29.50;92.20
27759;DHT22;15148;48.972;12.794;2022-07-24T13:53:59;29.40;90.70
27759;DHT22;15148;48.972;12.794;2022-07-24T13:59:01;29.40;90.90
27759;DHT22;15148;48.972;12.794;2022-07-24T14:04:05;29.40;93.30
27759;DHT22;15148;48.972;12.794;2022-07-24T14:09:28;29.40;90.90
27759;DHT22;15148;48.972;12.794;2022-07-24T14:14:31;29.50;90.70
27759;DHT22;15148;48.972;12.794;2022-07-24T14:19:33;29.50;90.10
27759;DHT22;15148;48.972;12.794;2022-07-24T14:24:35;29.60;91.30
27759;DHT22;15148;48.972;12.794;2022-07-24T14:29:40;29.60;90.50
27759;DHT22;15148;48.972;12.794;2022-07-24T14:34:42;29.60;88.70
27759;DHT22;15148;48.972;12.794;2022-07-24T14:39:44;29.50;89.30
27759;DHT22;15148;48.972;12.794;2022-07-24T14:44:46;29.50;88.90
27759;DHT22;15148;48.972;12.794;2022-07-24T14:49:48;29.40;86.60
27759;DHT22;15148;48.972;12.794;2022-07-24T14:54:50;29.30;86.80
27759;DHT22;15148;48.972;12.794;2022-07-24T14:59:53;29.30;88.50
27759;DHT22;15148;48.972;12.794;2022-07-24T15:04:54;29.30;89.70
27759;DHT22;15148;48.972;12.794;2022-07-24T15:09:56;29.30;89.60
27759;DHT22;15148;48.972;12.794;2022-07-24T15:14:58;29.20;86.50
27759;DHT22;15148;48.972;12.794;2022-07-24T15:20:00;29.10;85.40
27759;DHT22;15148;48.972;12.794;2022-07-24T15:25:02;29.00;85.40
27759;DHT22;15148;48.972;12.794;2022-07-24T15:30:04;29.00;86.50
27759;DHT22;15148;48.972;12.794;2022-07-24T15:35:15;28.90;85.00
27759;DHT22;15148;48.972;12.794;2022-07-24T15:40:17;28.70;86.10
27759;DHT22;15148;48.972;12.794;2022-07-24T15:45:19;28.70;89.70
27759;DHT22;15148;48.972;12.794;2022-07-24T15:50:21;28.60;87.80
27759;DHT22;15148;48.972;12.794;2022-07-24T15:55:23;28.60;90.30
27759;DHT22;15148;48.972;12.794;2022-07-24T16:00:25;28.50;91.10
27759;DHT22;15148;48.972;12.794;2022-07-24T16:05:27;28.40;87.40
27759;DHT22;15148;48.972;12.794;2022-07-24T16:10:29;28.30;89.50
27759;DHT22;15148;48.972;12.794;2022-07-24T16:15:30;28.30;90.90
27759;DHT22;15148;48.972;12.794;2022-07-24T16:20:32;28.20;91.20
27759;DHT22;15148;48.972;12.794;2022-07-24T16:25:34;28.00;90.60
27759;DHT22;15148;48.972;12.794;2022-07-24T16:30:36;28.00;90.60
27759;DHT22;15148;48.972;12.794;2022-07-24T16:35:38;27.90;92.90
27759;DHT22;15148;48.972;12.794;2022-07-24T16:40:40;27.80;92.50
27759;DHT22;15148;48.972;12.794;2022-07-24T16:45:42;27.70;92.30
27759;DHT22;15148;48.972;12.794;2022-07-24T16:50:44;27.60;90.80
27759;DHT22;15148;48.972;12.794;2022-07-24T16:55:46;27.50;91.80
27759;DHT22;15148;48.972;12.794;2022-07-24T17:00:48;27.50;91.10
27759;DHT22;15148;48.972;12.794;2022-07-24T17:05:52;27.40;92.50
27759;DHT22;15148;48.972;12.794;2022-07-24T17:10:54;27.30;91.40
27759;DHT22;15148;48.972;12.794;2022-07-24T17:15:56;27.20;90.40
27759;DHT22;15148;48.972;12.794;2022-07-24T17:21:04;27.10;90.90
27759;DHT22;15148;48.972;12.794;2022-07-24T17:26:06;27.00;92.30
27759;DHT22;15148;48.972;12.794;2022-07-24T17:31:09;26.90;94.00
27759;DHT22;15148;48.972;12.794;2022-07-24T17:36:21;26.70;96.50
27759;DHT22;15148;48.972;12.794;2022-07-24T17:41:23;26.50;97.50
27759;DHT22;15148;48.972;12.794;2022-07-24T17:46:25;26.20;99.00
27759;DHT22;15148;48.972;12.794;2022-07-24T17:51:27;26.00;99.90
27759;DHT22;15148;48.972;12.794;2022-07-24T17:56:28;25.80;99.90
27759;DHT22;15148;48.972;12.794;2022-07-24T18:01:30;25.50;99.90
27759;DHT22;15148;48.972;12.794;2022-07-24T18:06:32;25.30;99.90
27759;DHT22;15148;48.972;12.794;2022-07-24T18:11:34;25.10;99.90
27759;DHT22;15148;48.972;12.794;2022-07-24T18:16:36;24.80;99.90
27759;DHT22;15148;48.972;12.794;2022-07-24T18:21:38;24.60;99.90
27759;DHT22;15148;48.972;12.794;2022-07-24T18:26:40;24.50;99.90
27759;DHT22;15148;48.972;12.794;2022-07-24T18:31:42;24.30;99.90
27759;DHT22;15148;48.972;12.794;2022-07-24T18:36:44;24.20;99.90
27759;DHT22;15148;48.972;12.794;2022-07-24T18:41:46;24.00;99.90
27759;DHT22;15148;48.972;12.794;2022-07-24T18:46:48;23.90;99.90
27759;DHT22;15148;48.972;12.794;2022-07-24T18:51:50;23.70;99.90
27759;DHT22;15148;48.972;12.794;2022-07-24T18:56:53;23.60;99.90
27759;DHT22;15148;48.972;12.794;2022-07-24T19:01:55;23.30;99.90
27759;DHT22;15148;48.972;12.794;2022-07-24T19:06:58;23.20;99.90
27759;DHT22;15148;48.972;12.794;2022-07-24T19:12:00;23.20;99.90
27759;DHT22;15148;48.972;12.794;2022-07-24T19:17:01;23.20;99.90
27759;DHT22;15148;48.972;12.794;2022-07-24T19:22:05;22.90;99.90
27759;DHT22;15148;48.972;12.794;2022-07-24T19:27:07;22.90;99.90
27759;DHT22;15148;48.972;12.794;2022-07-24T19:32:09;22.80;99.90
27759;DHT22;15148;48.972;12.794;2022-07-24T19:37:10;22.70;99.90
27759;DHT22;15148;48.972;12.794;2022-07-24T19:42:19;22.60;99.90
27759;DHT22;15148;48.972;12.794;2022-07-24T19:47:21;22.50;99.90
27759;DHT22;15148;48.972;12.794;2022-07-24T19:52:25;22.50;99.90
27759;DHT22;15148;48.972;12.794;2022-07-24T19:57:28;22.40;99.90
27759;DHT22;15148;48.972;12.794;2022-07-24T20:02:30;22.40;99.90
27759;DHT22;15148;48.972;12.794;2022-07-24T20:07:32;22.20;99.90
27759;DHT22;15148;48.972;12.794;2022-07-24T20:12:34;22.10;99.90
27759;DHT22;15148;48.972;12.794;2022-07-24T20:17:36;22.00;99.90
27759;DHT22;15148;48.972;12.794;2022-07-24T20:22:38;21.90;99.90
27759;DHT22;15148;48.972;12.794;2022-07-24T20:27:40;21.90;99.90
27759;DHT22;15148;48.972;12.794;2022-07-24T20:32:43;21.80;99.90
27759;DHT22;15148;48.972;12.794;2022-07-24T20:37:49;21.70;99.90
27759;DHT22;15148;48.972;12.794;2022-07-24T20:42:51;21.60;99.90
27759;DHT22;15148;48.972;12.794;2022-07-24T20:47:53;21.40;99.90
27759;DHT22;15148;48.972;12.794;2022-07-24T20:52:55;21.30;99.90
27759;DHT22;15148;48.972;12.794;2022-07-24T20:57:58;21.20;99.90
27759;DHT22;15148;48.972;12.794;2022-07-24T21:02:59;21.30;99.90
27759;DHT22;15148;48.972;12.794;2022-07-24T21:08:05;21.20;99.90
27759;DHT22;15148;48.972;12.794;2022-07-24T21:13:07;21.00;99.90
27759;DHT22;15148;48.972;12.794;2022-07-24T21:18:09;20.90;99.90
27759;DHT22;15148;48.972;12.794;2022-07-24T21:23:12;20.70;99.90
27759;DHT22;15148;48.972;12.794;2022-07-24T21:28:14;20.60;99.90
27759;DHT22;15148;48.972;12.794;2022-07-24T21:33:16;20.50;99.90
27759;DHT22;15148;48.972;12.794;2022-07-24T21:38:18;20.60;99.90
27759;DHT22;15148;48.972;12.794;2022-07-24T21:43:20;20.60;99.90
27759;DHT22;15148;48.972;12.794;2022-07-24T21:48:22;20.70;99.90
27759;DHT22;15148;48.972;12.794;2022-07-24T21:53:24;20.70;99.90
27759;DHT22;15148;48.972;12.794;2022-07-24T21:58:26;20.60;99.90
27759;DHT22;15148;48.972;12.794;2022-07-24T22:03:28;20.60;99.90
27759;DHT22;15148;48.972;12.794;2022-07-24T22:08:30;20.50;99.90
27759;DHT22;15148;48.972;12.794;2022-07-24T22:13:32;20.50;99.90
27759;DHT22;15148;48.972;12.794;2022-07-24T22:18:34;20.40;99.90
27759;DHT22;15148;48.972;12.794;2022-07-24T22:23:35;20.40;99.90
27759;DHT22;15148;48.972;12.794;2022-07-24T22:28:38;20.40;99.90
27759;DHT22;15148;48.972;12.794;2022-07-24T22:33:40;20.10;99.90
27759;DHT22;15148;48.972;12.794;2022-07-24T22:38:41;20.00;99.90
27759;DHT22;15148;48.972;12.794;2022-07-24T22:43:43;19.90;99.90
27759;DHT22;15148;48.972;12.794;2022-07-24T22:48:46;19.80;99.90
27759;DHT22;15148;48.972;12.794;2022-07-24T22:53:49;19.80;99.90
27759;DHT22;15148;48.972;12.794;2022-07-24T22:58:54;19.70;99.90
27759;DHT22;15148;48.972;12.794;2022-07-24T23:03:56;19.70;99.90
27759;DHT22;15148;48.972;12.794;2022-07-24T23:08:58;19.50;99.90
27759;DHT22;15148;48.972;12.794;2022-07-24T23:13:59;19.50;99.90
27759;DHT22;15148;48.972;12.794;2022-07-24T23:19:01;19.50;99.90
27759;DHT22;15148;48.972;12.794;2022-07-24T23:24:04;19.50;99.90
27759;DHT22;15148;48.972;12.794;2022-07-24T23:29:06;19.50;99.90
27759;DHT22;15148;48.972;12.794;2022-07-24T23:34:10;19.40;99.90
27759;DHT22;15148;48.972;12.794;2022-07-24T23:39:12;19.40;99.90
27759;DHT22;15148;48.972;12.794;2022-07-24T23:44:14;19.20;99.90
27759;DHT22;15148;48.972;12.794;2022-07-24T23:49:16;19.10;99.90
27759;DHT22;15148;48.972;12.794;2022-07-24T23:54:18;19.10;99.90
27759;DHT22;15148;48.972;12.794;2022-07-24T23:59:19;19.10;99.90
